Time;durP1;ratioP1;P1;durP2;ratioP2;P2;SDS_P1;SDS_P2;PMS_P1;PMS_P2;Temp;Humidity;BMP_temperature;BMP_pressure;BME280_temperature;BME280_humidity;BME280_pressure;Samples;Min_cycle;Max_cycle;Signal;HPM_P1;HPM_P2
2021/12/24 00:01:49;;;;;;;15.80;12.18;;;;;;;6.54;88.42;99788.09;6155132;23;20025;-66
2021/12/24 00:04:52;;;;;;;18.58;12.95;;;;;;;6.45;88.87;99794.56;6155104;23;20028;-66
2021/12/24 00:07:55;;;;;;;;;;;;;;;6.29;89.62;99799.63;6155485;23;20033;-66
2021/12/24 00:11:01;;;;;;;18.90;12.73;;;;;;;6.44;88.95;99799.81;6153320;23;19978;-66
2021/12/24 00:14:06;;;;;;;25.92;16.83;;;;;;;6.46;89.08;99800.59;6153669;23;20072;-66
2021/12/24 00:17:13;;;;;;;17.73;11.90;;;;;;;6.49;88.85;99795.25;6153765;23;20100;-66
2021/12/24 00:36:33;;;;;;;21.08;11.48;;;;;;;6.82;87.58;99791.94;6155069;23;20463;-66
2021/12/24 00:39:45;;;;;;;29.48;22.55;;;;;;;6.72;88.26;99787.19;6202761;23;20035;-66
2021/12/24 00:42:51;;;;;;;22.88;16.95;;;;;;;6.67;88.47;99786.59;6213696;23;20466;-66
2021/12/24 00:45:54;;;;;;;19.58;14.00;;;;;;;6.67;88.24;99790.94;6196089;23;20082;-66
2021/12/24 00:49:00;;;;;;;;;;;;;;;6.70;88.92;99804.63;6196555;23;20086;-66
2021/12/24 00:52:19;;;;;;;21.30;11.38;;;;;;;6.81;87.78;99800.66;6196170;23;19915;-66
2021/12/24 00:55:24;;;;;;;15.55;10.52;;;;;;;6.89;88.02;99788.13;6214378;23;20024;-66
2021/12/24 00:58:27;;;;;;;14.38;9.65;;;;;;;6.85;87.49;99784.84;6196246;23;20038;-66
2021/12/24 01:01:31;;;;;;;;;;;;;;;6.87;87.49;99782.19;6214945;23;20027;-66
2021/12/24 01:04:34;;;;;;;14.02;10.20;;;;;;;6.83;87.84;99789.28;6195976;23;20014;-66
2021/12/24 01:07:38;;;;;;;18.38;10.60;;;;;;;6.72;88.77;99787.19;6195861;23;20027;-66
2021/12/24 01:10:45;;;;;;;18.45;11.60;;;;;;;6.77;88.84;99784.38;6214286;23;20358;-66
2021/12/24 01:13:49;;;;;;;16.23;10.48;;;;;;;6.83;87.79;99780.63;6214362;23;20023;-66
2021/12/24 01:17:05;;;;;;;15.00;9.15;;;;;;;7.09;86.30;99788.00;6195828;23;20492;-66
2021/12/24 01:20:23;;;;;;;13.10;9.27;;;;;;;7.03;86.89;99783.09;6214444;23;20161;-66
2021/12/24 01:23:32;;;;;;;13.82;10.27;;;;;;;6.87;87.61;99775.22;6213772;23;20035;-66
2021/12/24 01:27:07;;;;;;;17.40;11.25;;;;;;;6.90;87.72;99779.44;6195310;23;20023;-66
2021/12/24 01:40:26;;;;;;;14.57;9.20;;;;;;;6.82;87.98;99771.16;6195329;23;20028;-66
2021/12/24 01:43:30;;;;;;;14.52;9.82;;;;;;;6.89;88.07;99757.81;6195775;23;20055;-66
2021/12/24 01:46:33;;;;;;;16.55;10.35;;;;;;;6.80;88.35;99762.63;6214004;23;20071;-66
2021/12/24 01:49:36;;;;;;;;;;;;;;;6.77;88.80;99767.97;6196015;23;20027;-66
2021/12/24 01:52:44;;;;;;;12.93;9.05;;;;;;;6.71;88.52;99759.53;6213059;23;20360;-66
2021/12/24 01:55:50;;;;;;;12.60;9.82;;;;;;;6.55;89.15;99758.59;6196030;23;20054;-66
2021/12/24 01:58:53;;;;;;;14.15;10.57;;;;;;;6.45;89.55;99752.16;6195726;23;20074;-66
2021/12/24 02:01:56;;;;;;;12.82;9.50;;;;;;;6.33;90.28;99747.53;6195607;23;20032;-66
2021/12/24 02:05:00;;;;;;;14.07;10.35;;;;;;;6.21;90.99;99744.59;6195521;23;20078;-66
2021/12/24 02:08:04;;;;;;;15.10;9.85;;;;;;;6.20;91.02;99748.13;6213779;23;20074;-66
2021/12/24 02:11:07;;;;;;;15.45;11.20;;;;;;;6.27;91.81;99744.31;6195521;23;20039;-66
2021/12/24 02:14:18;;;;;;;15.38;10.98;;;;;;;5.96;92.56;99750.06;6213836;23;20028;-66
2021/12/24 02:30:32;;;;;;;13.05;9.52;;;;;;;7.13;87.88;99732.34;6195690;23;20103;-66
2021/12/24 02:33:35;;;;;;;10.48;8.40;;;;;;;7.29;87.23;99731.56;6195714;23;20044;-66
2021/12/24 02:36:38;;;;;;;14.02;9.30;;;;;;;7.31;86.76;99724.53;6215489;23;20019;-66
2021/12/24 02:39:42;;;;;;;14.50;8.80;;;;;;;7.38;86.46;99718.09;6196745;23;20096;-66
2021/12/24 02:42:50;;;;;;;12.15;8.38;;;;;;;7.25;87.22;99711.84;6197403;23;20077;-66
2021/12/24 02:45:57;;;;;;;11.48;8.50;;;;;;;7.39;86.60;99701.53;6215448;23;20035;-66
2021/12/24 02:55:29;;;;;;;12.98;7.40;;;;;;;7.48;86.23;99708.88;6197014;23;20036;-66
2021/12/24 02:58:44;;;;;;;9.93;7.10;;;;;;;7.52;85.88;99710.38;6215643;23;20028;-66
2021/12/24 03:01:48;;;;;;;11.35;7.22;;;;;;;7.63;85.47;99721.06;6197186;23;20039;-66
2021/12/24 03:04:52;;;;;;;10.00;7.10;;;;;;;7.58;85.45;99715.25;6196930;23;20410;-66
2021/12/24 03:07:55;;;;;;;;;;;;;;;7.54;85.69;99713.75;6197419;23;20091;-66
2021/12/24 03:10:59;;;;;;;8.90;6.72;;;;;;;7.47;85.97;99707.19;6213042;23;19991;-66
2021/12/24 03:14:06;;;;;;;9.52;6.65;;;;;;;7.54;85.72;99713.75;6197134;23;20051;-66
2021/12/24 03:17:14;;;;;;;9.93;6.78;;;;;;;7.57;85.41;99717.97;6197112;23;20023;-66
2021/12/24 03:20:18;;;;;;;12.20;7.32;;;;;;;7.58;85.24;99720.47;6215285;23;20405;-66
2021/12/24 03:23:34;;;;;;;9.13;6.03;;;;;;;7.71;84.52;99706.81;6196814;23;20082;-66
2021/12/24 03:26:46;;;;;;;8.40;6.28;;;;;;;7.64;84.73;99708.91;6215242;23;20032;-66
2021/12/24 03:29:51;;;;;;;9.35;7.22;;;;;;;7.63;84.80;99715.88;6195205;23;20151;-66
2021/12/24 03:32:54;;;;;;;8.60;6.15;;;;;;;7.69;84.18;99705.16;6196355;23;20026;-66
2021/12/24 03:35:58;;;;;;;7.50;5.60;;;;;;;7.66;84.61;99692.28;6196627;23;20052;-66
2021/12/24 03:39:01;;;;;;;;;;;;;;;7.63;84.52;99705.47;6196944;23;20082;-66
2021/12/24 03:42:05;;;;;;;9.77;5.22;;;;;;;7.55;84.89;99702.41;6215263;23;19916;-66
2021/12/24 03:45:23;;;;;;;8.68;5.90;;;;;;;7.59;84.32;99700.50;6179829;23;20079;-66
2021/12/24 03:48:42;;;;;;;7.05;4.85;;;;;;;7.64;83.93;99698.50;6196459;23;20556;-66
2021/12/24 03:54:57;;;;;;;7.28;4.90;;;;;;;7.59;84.10;99690.91;6214993;23;20027;-66
2021/12/24 03:58:02;;;;;;;7.75;5.28;;;;;;;7.66;83.75;99687.09;6196606;23;20402;-66
2021/12/24 04:01:24;;;;;;;8.77;5.38;;;;;;;7.61;83.95;99691.69;6200504;23;20023;-66
2021/12/24 04:04:46;;;;;;;7.75;5.15;;;;;;;7.53;84.12;99688.66;6214718;23;20078;-65
2021/12/24 04:07:58;;;;;;;7.35;4.70;;;;;;;7.50;84.59;99698.38;6214599;23;20086;-66
2021/12/24 04:11:14;;;;;;;6.57;4.90;;;;;;;7.37;85.22;99696.44;6196384;23;20024;-66
2021/12/24 04:14:17;;;;;;;7.95;5.35;;;;;;;7.40;85.20;99695.41;6196288;23;20473;-66
2021/12/24 04:17:21;;;;;;;10.52;5.32;;;;;;;7.42;85.20;99693.59;6214647;23;20131;-66
2021/12/24 04:27:16;;;;;;;8.50;5.22;;;;;;;7.41;85.09;99691.91;6195934;23;20441;-66
2021/12/24 04:30:25;;;;;;;6.80;5.05;;;;;;;7.41;85.19;99691.91;6178416;23;20027;-66
2021/12/24 04:33:35;;;;;;;6.93;4.78;;;;;;;7.43;85.14;99696.13;6178229;23;20027;-66
2021/12/24 04:39:54;;;;;;;9.48;4.90;;;;;;;7.40;85.02;99691.09;6213855;23;20098;-66
2021/12/24 05:03:13;;;;;;;7.18;5.00;;;;;;;7.23;85.54;99688.50;6195979;23;20133;-66
2021/12/24 05:09:25;;;;;;;8.00;5.05;;;;;;;7.18;85.53;99701.75;6196098;23;20027;-66
2021/12/24 05:12:31;;;;;;;9.13;4.68;;;;;;;7.31;85.01;99704.56;6213574;23;20039;-66
2021/12/24 05:15:39;;;;;;;7.43;5.35;;;;;;;7.25;85.05;99697.06;6196075;23;20023;-66
2021/12/24 05:22:24;;;;;;;;;;;;;;;7.37;84.36;99698.19;6195628;23;20102;-66
2021/12/24 05:25:28;;;;;;;7.85;4.80;;;;;;;7.35;84.20;99682.66;6207447;23;19914;-66
2021/12/24 05:28:31;;;;;;;8.98;4.82;;;;;;;7.42;83.99;99683.19;6189715;23;20027;-66
2021/12/24 05:31:35;;;;;;;;;;;;;;;7.36;84.48;99688.69;6189861;23;20073;-66
2021/12/24 05:34:38;;;;;;;7.07;4.25;;;;;;;7.31;84.67;99682.91;6208197;23;19923;-66
2021/12/24 05:37:41;;;;;;;;;;;;;;;7.26;85.04;99682.31;6206362;23;20139;-66
2021/12/24 05:40:45;;;;;;;8.55;5.07;;;;;;;7.28;84.78;99693.47;6187739;23;20388;-66
2021/12/24 05:43:50;;;;;;;7.68;4.60;;;;;;;7.40;83.98;99691.09;6187132;23;20027;-66
2021/12/24 05:46:53;;;;;;;9.27;6.68;;;;;;;7.38;83.97;99690.31;6185293;23;20345;-66
2021/12/24 05:50:08;;;;;;;8.38;5.55;;;;;;;7.40;83.86;99690.22;6184934;23;20023;-66
2021/12/24 05:53:20;;;;;;;10.57;6.60;;;;;;;7.35;84.25;99687.03;6206731;23;20402;-66
2021/12/24 05:56:33;;;;;;;11.27;5.80;;;;;;;7.32;84.51;99689.78;6187653;23;20090;-66
2021/12/24 05:59:48;;;;;;;10.00;5.38;;;;;;;7.38;83.92;99687.72;6186167;23;20038;-66
2021/12/24 06:02:51;;;;;;;8.90;6.38;;;;;;;7.35;84.11;99692.22;6190753;23;20042;-66
2021/12/24 06:05:55;;;;;;;8.88;4.80;;;;;;;7.40;83.71;99708.41;6207700;23;20032;-66
2021/12/24 06:08:58;;;;;;;9.40;4.88;;;;;;;7.48;83.68;99713.25;6208426;23;20071;-66
2021/12/24 06:12:05;;;;;;;;;;;;;;;7.50;83.33;99707.03;6209979;23;20095;-66
2021/12/24 06:15:09;;;;;;;5.18;3.67;;;;;;;7.54;83.38;99712.91;6210638;23;20314;-66
2021/12/24 06:18:22;;;;;;;6.50;3.65;;;;;;;7.45;83.65;99714.22;6207825;23;20035;-66
2021/12/24 06:21:44;;;;;;;7.78;4.05;;;;;;;7.50;83.02;99707.03;6210401;23;20030;-66
2021/12/24 06:25:14;;;;;;;9.73;5.88;;;;;;;7.51;83.03;99711.31;6210727;23;20056;-66
2021/12/24 06:28:38;;;;;;;10.88;6.00;;;;;;;7.37;84.19;99708.56;6209667;23;20027;-66
2021/12/24 06:31:41;;;;;;;7.30;4.10;;;;;;;7.38;83.83;99705.91;6209436;23;20552;-66
2021/12/24 06:34:45;;;;;;;6.50;3.75;;;;;;;7.41;83.88;99713.56;6210178;23;20031;-66
2021/12/24 06:37:48;;;;;;;6.07;3.50;;;;;;;7.42;83.82;99710.03;6209863;23;20074;-66
2021/12/24 06:40:52;;;;;;;;;;;;;;;7.36;83.65;99715.53;6210951;23;20071;-66
2021/12/24 06:44:11;;;;;;;10.68;4.65;;;;;;;7.39;83.97;99714.56;6211113;23;20298;-66
2021/12/24 06:47:14;;;;;;;8.90;4.05;;;;;;;7.33;84.03;99709.66;6210342;23;20024;-63
2021/12/24 06:50:18;;;;;;;8.00;5.03;;;;;;;7.35;83.89;99703.47;6210017;23;20042;-64
2021/12/24 06:53:21;;;;;;;7.57;5.85;;;;;;;7.42;83.65;99717.00;6210686;23;20039;-64
2021/12/24 06:56:25;;;;;;;12.77;8.43;;;;;;;7.40;83.73;99717.09;6191609;23;20089;-66
2021/12/24 06:59:29;;;;;;;18.33;14.10;;;;;;;7.40;83.59;99717.09;6190991;23;20397;-66
2021/12/24 07:02:33;;;;;;;18.17;12.63;;;;;;;7.35;83.99;99718.25;6190940;23;20051;-66
2021/12/24 07:09:42;;;;;;;18.92;12.02;;;;;;;7.41;83.05;99717.91;6212455;23;20103;-66
2021/12/24 07:12:45;;;;;;;9.15;3.97;;;;;;;7.43;82.94;99716.06;6209188;23;20029;-66
2021/12/24 07:15:48;;;;;;;;;;;;;;;7.45;82.72;99709.03;6191790;23;20047;-66
2021/12/24 07:18:52;;;;;;;133.68;122.28;;;;;;;7.44;82.73;99713.41;6210502;23;19915;-66
2021/12/24 07:21:55;;;;;;;18.17;16.38;;;;;;;7.40;83.25;99713.63;6209966;23;20107;-66
2021/12/24 07:24:58;;;;;;;;;;;;;;;7.41;83.34;99708.34;6208350;23;20104;-66
2021/12/24 07:28:03;;;;;;;9.50;5.45;;;;;;;7.39;83.39;99715.38;6207862;23;20280;-66
2021/12/24 07:31:06;;;;;;;11.50;5.88;;;;;;;7.41;82.91;99717.91;6207861;23;20058;-66
2021/12/24 07:34:34;;;;;;;135.30;120.57;;;;;;;7.40;82.93;99716.22;6209477;23;20027;-64
2021/12/24 07:37:38;;;;;;;23.35;18.85;;;;;;;7.39;83.35;99712.78;6208882;23;20024;-64
2021/12/24 07:40:52;;;;;;;67.32;52.92;;;;;;;7.43;83.00;99710.84;6209332;23;20545;-64
2021/12/24 07:43:56;;;;;;;63.35;52.72;;;;;;;7.43;82.57;99703.06;6190304;23;20042;-65
2021/12/24 07:47:01;;;;;;;86.13;70.10;;;;;;;7.43;82.99;99710.84;6208791;23;20063;-65
2021/12/24 07:51:58;;;;;;;58.92;47.67;;;;;;;7.44;83.06;99720.38;6208945;23;20082;-65
2021/12/24 07:53:40;;;;;;;43.85;32.95;;;;;;;7.41;83.08;99717.91;6209183;23;20028;-66
2021/12/24 08:01:07;;;;;;;58.30;41.17;;;;;;;7.43;83.05;99710.84;6208968;23;20108;-66
2021/12/24 08:04:10;;;;;;;;;;;;;;;7.44;82.46;99707.34;6210512;23;20040;-69
2021/12/24 08:07:15;;;;;;;;;;;;;;;7.42;83.13;99710.03;6210735;23;19923;-66
2021/12/24 08:10:20;;;;;;;33.58;24.23;;;;;;;7.42;82.87;99709.19;6207975;23;19942;-66
2021/12/24 08:13:23;;;;;;;154.73;106.80;;;;;;;7.42;83.00;99704.00;6209058;23;20036;-66
2021/12/24 08:16:27;;;;;;;;;;;;;;;7.43;83.07;99700.47;6209478;23;20103;-66
2021/12/24 08:19:31;;;;;;;107.22;71.40;;;;;;;7.49;82.73;99696.69;6209032;23;19961;-66
2021/12/24 08:22:35;;;;;;;29.45;20.10;;;;;;;7.41;83.36;99704.91;6214041;23;20119;-66
2021/12/24 08:25:38;;;;;;;53.53;34.22;;;;;;;7.42;83.30;99704.00;6195489;23;20022;-66
2021/12/24 08:28:42;;;;;;;29.52;19.67;;;;;;;7.46;83.07;99702.91;6214258;23;20190;-66
2021/12/24 08:31:46;;;;;;;16.48;8.20;;;;;;;7.40;83.30;99703.22;6214894;23;20404;-66
2021/12/24 08:34:51;;;;;;;;;;;;;;;7.46;82.78;99701.13;6209783;23;20548;-66
2021/12/24 08:41:11;;;;;;;13.35;6.38;;;;;;;7.53;82.69;99721.63;6168045;23;20032;-63
2021/12/24 08:44:14;;;;;;;9.95;5.07;;;;;;;7.61;81.92;99720.31;6208640;23;20588;-63
2021/12/24 08:47:18;;;;;;;;;;;;;;;7.57;82.33;99711.00;6207884;23;20023;-63
2021/12/24 08:50:21;;;;;;;13.57;5.03;;;;;;;7.72;81.38;99711.91;6208823;23;20300;-63
2021/12/24 08:53:25;;;;;;;25.50;12.63;;;;;;;7.76;80.74;99700.44;6204405;23;20220;-63
2021/12/24 08:56:29;;;;;;;21.77;11.23;;;;;;;7.81;80.91;99695.81;6208418;23;20035;-64
2021/12/24 08:59:32;;;;;;;19.98;8.88;;;;;;;7.80;81.12;99703.72;6208150;23;20076;-63
2021/12/24 09:02:36;;;;;;;;;;;;;;;7.84;80.64;99693.03;6207260;23;20127;-63
2021/12/24 09:05:39;;;;;;;;;;;;;;;7.89;80.60;99687.59;6209239;23;20352;-62
2021/12/24 09:08:44;;;;;;;13.97;6.87;;;;;;;7.95;80.63;99676.88;6191083;23;19941;-63
2021/12/24 09:11:49;;;;;;;15.18;6.32;;;;;;;8.24;79.99;99669.19;6208156;23;20444;-69
2021/12/24 09:14:53;;;;;;;15.02;7.97;;;;;;;8.24;79.71;99674.41;6206337;23;20108;-66
2021/12/24 09:18:03;;;;;;;20.55;11.13;;;;;;;8.20;79.86;99683.28;6209941;23;20020;-66
2021/12/24 09:21:14;;;;;;;22.23;11.63;;;;;;;8.41;78.38;99676.91;6209492;23;20090;-66
2021/12/24 09:24:19;;;;;;;18.77;8.98;;;;;;;8.37;78.26;99678.00;6210079;23;20062;-66
2021/12/24 09:27:26;;;;;;;17.88;8.13;;;;;;;8.27;79.04;99666.44;6209760;23;20024;-66
2021/12/24 09:30:30;;;;;;;12.98;6.97;;;;;;;8.27;78.83;99656.00;6191158;23;20441;-67
2021/12/24 09:33:34;;;;;;;14.35;7.05;;;;;;;8.50;79.33;99676.41;6210084;23;20501;-65
2021/12/24 09:36:40;;;;;;;22.65;5.60;;;;;;;8.56;78.00;99670.84;6210755;23;20098;-66
2021/12/24 09:39:44;;;;;;;16.33;5.55;;;;;;;8.49;77.79;99672.13;6209946;23;20079;-66
2021/12/24 09:42:47;;;;;;;;;;;;;;;8.45;78.28;99667.16;6210020;23;20051;-65
2021/12/24 09:45:51;;;;;;;11.70;4.57;;;;;;;8.44;78.23;99666.31;6211631;23;19931;-65
2021/12/24 09:48:54;;;;;;;;;;;;;;;8.37;77.89;99667.56;6211788;23;20027;-66
2021/12/24 09:52:00;;;;;;;12.85;4.47;;;;;;;8.39;78.43;99665.72;6211453;23;19915;-65
2021/12/24 09:55:19;;;;;;;10.65;4.25;;;;;;;8.38;77.92;99664.91;6212154;23;20489;-66
2021/12/24 09:58:23;;;;;;;13.45;4.97;;;;;;;8.35;78.00;99670.25;6213606;23;20477;-65
2021/12/24 10:01:43;;;;;;;11.63;4.45;;;;;;;8.39;77.84;99660.53;6215219;23;20079;-65
2021/12/24 10:04:47;;;;;;;22.83;16.80;;;;;;;8.47;78.17;99668.75;6212244;23;20366;-66
2021/12/24 10:07:50;;;;;;;14.30;7.43;;;;;;;8.34;77.73;99668.59;6211690;23;20106;-66
2021/12/24 10:11:09;;;;;;;15.20;8.77;;;;;;;8.39;77.60;99670.94;6211002;23;20074;-66
2021/12/24 10:14:12;;;;;;;16.15;6.78;;;;;;;8.47;77.32;99653.13;6210363;23;20027;-65
2021/12/24 10:17:36;;;;;;;;;;;;;;;8.48;77.41;99660.00;6211883;23;20035;-65
2021/12/24 10:20:56;;;;;;;16.85;8.25;;;;;;;8.41;77.48;99650.88;6211081;23;19927;-64
2021/12/24 10:24:04;;;;;;;60.17;41.92;;;;;;;8.51;77.59;99648.56;6211300;23;20027;-65
2021/12/24 10:27:08;;;;;;;45.28;31.23;;;;;;;8.44;77.19;99657.69;6211800;23;20110;-65
2021/12/24 10:30:19;;;;;;;18.35;8.75;;;;;;;8.47;77.18;99647.91;6211505;23;20027;-65
2021/12/24 10:33:22;;;;;;;19.42;6.50;;;;;;;8.47;76.74;99663.53;6193191;23;20103;-65
2021/12/24 10:36:25;;;;;;;;;;;;;;;8.54;76.57;99654.44;6212595;23;20760;-65
2021/12/24 10:39:28;;;;;;;18.13;6.97;;;;;;;8.50;77.14;99642.53;6210986;23;19969;-65
2021/12/24 10:42:36;;;;;;;;;;;;;;;8.51;77.30;99636.38;6215071;23;20074;-65
2021/12/24 10:45:43;;;;;;;18.17;7.53;;;;;;;8.56;77.00;99625.72;6214210;23;19915;-65
2021/12/24 10:49:07;;;;;;;13.85;5.18;;;;;;;8.58;76.77;99624.69;6211247;23;20108;-66
2021/12/24 10:55:24;;;;;;;;;;;;;;;8.55;76.73;99621.41;6211576;23;20027;-65
2021/12/24 10:58:31;;;;;;;13.02;6.38;;;;;;;8.51;76.86;99615.53;6211752;23;19919;-65
2021/12/24 11:01:35;;;;;;;8.93;4.50;;;;;;;8.57;76.76;99629.97;6211130;23;20440;-65
2021/12/24 11:04:38;;;;;;;;;;;;;;;8.74;75.77;99627.25;6211605;23;20070;-65
2021/12/24 11:07:42;;;;;;;10.95;4.40;;;;;;;8.92;75.33;99627.06;6210816;23;20416;-66
2021/12/24 11:10:49;;;;;;;12.07;5.70;;;;;;;8.97;75.79;99623.25;6211365;23;20104;-65
2021/12/24 11:13:53;;;;;;;8.82;5.22;;;;;;;8.83;75.47;99633.66;6211662;23;20104;-65
2021/12/24 11:16:58;;;;;;;11.55;4.22;;;;;;;8.81;75.22;99625.13;6211901;23;20023;-65
2021/12/24 11:20:03;;;;;;;10.27;4.15;;;;;;;8.87;74.73;99616.94;6212037;23;20079;-65
2021/12/24 11:23:10;;;;;;;11.57;4.35;;;;;;;8.85;74.43;99610.97;6211419;23;20028;-66
2021/12/24 11:26:23;;;;;;;11.30;4.07;;;;;;;8.83;74.53;99610.19;6211358;23;20024;-65
2021/12/24 11:29:26;;;;;;;9.75;3.75;;;;;;;8.82;74.37;99611.13;6211676;23;20103;-65
2021/12/24 11:32:31;;;;;;;;;;;;;;;8.84;74.59;99614.50;6211978;23;20126;-66
2021/12/24 11:35:35;;;;;;;10.00;4.82;;;;;;;8.89;74.90;99615.06;6211762;23;20284;-66
2021/12/24 11:38:44;;;;;;;8.95;3.80;;;;;;;8.87;74.17;99610.84;6210312;23;20063;-65
2021/12/24 11:41:49;;;;;;;9.68;3.38;;;;;;;8.77;74.50;99616.59;6193543;23;20540;-65
2021/12/24 11:45:01;;;;;;;7.00;3.15;;;;;;;8.97;74.00;99612.00;6211570;23;20671;-65
2021/12/24 11:48:06;;;;;;;11.17;4.60;;;;;;;9.08;73.03;99617.38;6212016;23;20023;-66
2021/12/24 11:51:40;;;;;;;12.10;3.85;;;;;;;9.04;73.05;99619.34;6211775;23;20314;-66
2021/12/24 11:54:44;;;;;;;11.48;3.53;;;;;;;9.10;73.04;99612.09;6211780;23;20594;-65
2021/12/24 11:58:03;;;;;;;12.80;4.40;;;;;;;9.06;72.95;99599.25;6192961;23;20032;-66
2021/12/24 12:01:07;;;;;;;19.05;11.75;;;;;;;9.15;72.83;99602.22;6211047;23;20090;-66
2021/12/24 12:04:12;;;;;;;17.02;10.48;;;;;;;9.15;72.29;99592.59;6211548;23;20536;-65
2021/12/24 12:07:24;;;;;;;26.83;16.75;;;;;;;9.20;72.49;99602.78;6209871;23;20028;-65
2021/12/24 12:10:56;;;;;;;38.45;20.40;;;;;;;9.01;72.53;99601.28;6211307;23;20086;-65
2021/12/24 12:14:15;;;;;;;13.27;7.60;;;;;;;8.95;72.36;99596.44;6211413;23;20023;-66
2021/12/24 12:17:51;;;;;;;11.18;4.05;;;;;;;8.90;72.63;99572.41;6211732;23;20036;-66
2021/12/24 12:21:12;;;;;;;11.43;3.58;;;;;;;8.83;72.82;99573.69;6214144;23;20055;-67
2021/12/24 12:27:27;;;;;;;10.20;3.55;;;;;;;8.86;73.15;99560.50;6214321;23;20111;-67
2021/12/24 12:30:42;;;;;;;13.23;4.40;;;;;;;8.89;72.65;99565.50;6213641;23;20105;-67
2021/12/24 12:33:45;;;;;;;10.40;3.08;;;;;;;8.99;72.30;99566.63;6214277;23;20028;-67
2021/12/24 12:36:50;;;;;;;;;;;;;;;9.12;71.85;99563.28;6214845;23;20027;-67
2021/12/24 12:39:55;;;;;;;12.30;4.05;;;;;;;9.11;72.22;99572.03;6214074;23;19918;-67
2021/12/24 12:43:04;;;;;;;11.43;3.10;;;;;;;9.13;73.00;99562.38;6213918;23;20032;-67
2021/12/24 12:46:19;;;;;;;17.15;5.60;;;;;;;9.11;71.79;99554.63;6194906;23;20032;-67
2021/12/24 12:49:32;;;;;;;10.60;3.47;;;;;;;9.13;72.07;99557.16;6213823;23;20580;-67
2021/12/24 12:52:35;;;;;;;10.90;3.40;;;;;;;9.11;71.67;99564.22;6213893;23;20567;-67
2021/12/24 12:55:40;;;;;;;12.00;3.50;;;;;;;9.17;71.63;99558.63;6214287;23;20052;-68
2021/12/24 12:59:05;;;;;;;16.63;5.95;;;;;;;9.22;71.93;99566.97;6195418;23;20023;-67
2021/12/24 13:02:10;;;;;;;12.40;3.67;;;;;;;9.24;71.19;99560.75;6214101;23;20102;-67
2021/12/24 13:05:13;;;;;;;13.43;4.95;;;;;;;9.24;71.21;99565.97;6213396;23;20393;-67
2021/12/24 13:08:19;;;;;;;9.57;2.90;;;;;;;9.15;71.10;99560.47;6194975;23;20092;-67
2021/12/24 13:11:23;;;;;;;13.77;3.63;;;;;;;9.07;71.54;99568.78;6213927;23;20118;-67
2021/12/24 13:14:28;;;;;;;;;;;;;;;9.04;71.59;99554.16;6213983;23;20059;-67
2021/12/24 13:17:32;;;;;;;12.02;4.03;;;;;;;9.17;71.85;99553.41;6214082;23;20404;-67
2021/12/24 13:22:26;;;;;;;11.88;6.43;;;;;;;9.08;71.72;99554.81;6213477;23;20027;-67
2021/12/24 13:24:10;;;;;;;41.35;26.33;;;;;;;9.12;71.81;99548.47;6213975;23;20563;-67
2021/12/24 13:27:13;;;;;;;52.40;35.67;;;;;;;9.15;72.08;99558.69;6213427;23;20403;-67
2021/12/24 13:30:22;;;;;;;;;;;;;;;9.00;72.42;99560.50;6213551;23;20023;-67
2021/12/24 13:33:26;;;;;;;13.23;7.43;;;;;;;9.10;72.27;99541.69;6212642;23;19959;-67
2021/12/24 13:36:30;;;;;;;36.67;29.30;;;;;;;9.07;72.66;99546.16;6213203;23;20056;-67
2021/12/24 13:39:44;;;;;;;15.68;8.90;;;;;;;9.07;72.55;99548.75;6214122;23;20404;-67
2021/12/24 13:42:54;;;;;;;15.85;4.90;;;;;;;9.05;72.23;99545.41;6178234;23;20036;-67
2021/12/24 13:46:06;;;;;;;11.85;4.80;;;;;;;9.02;72.58;99540.38;6213828;23;20497;-67
2021/12/24 13:49:35;;;;;;;35.05;26.33;;;;;;;9.01;72.88;99538.69;6213656;23;20064;-66
2021/12/24 13:56:08;;;;;;;125.68;101.28;;;;;;;9.07;72.75;99553.13;6213978;23;20473;-67
2021/12/24 13:59:14;;;;;;;;;;;;;;;9.05;72.63;99560.22;6214955;23;20355;-67
2021/12/24 14:02:17;;;;;;;30.98;20.35;;;;;;;9.04;72.26;99553.31;6213655;23;19915;-67
2021/12/24 14:05:21;;;;;;;128.68;90.55;;;;;;;9.07;72.85;99553.97;6214004;23;20023;-67
2021/12/24 14:08:27;;;;;;;24.75;15.48;;;;;;;9.07;72.86;99553.97;6213072;23;20024;-67
2021/12/24 14:11:35;;;;;;;15.93;7.60;;;;;;;9.10;73.15;99555.56;6195610;23;20023;-67
2021/12/24 14:15:05;;;;;;;12.43;7.40;;;;;;;9.04;73.68;99556.75;6213124;23;20027;-67
2021/12/24 14:24:55;;;;;;;;;;;;;;;8.96;73.40;99551.16;6214049;23;20086;-69
2021/12/24 14:27:58;;;;;;;10.77;4.63;;;;;;;8.94;73.73;99547.84;6213734;23;19918;-69
2021/12/24 14:31:04;;;;;;;10.07;4.03;;;;;;;9.00;73.79;99552.69;6215469;23;20111;-63
2021/12/24 14:34:07;;;;;;;6.85;2.90;;;;;;;8.88;73.80;99547.38;6215346;23;20030;-67
2021/12/24 14:37:10;;;;;;;;;;;;;;;8.87;74.19;99546.53;6216237;23;20023;-71
2021/12/24 14:40:16;;;;;;;8.13;5.00;;;;;;;8.82;74.26;99553.78;6197691;23;19932;-71
2021/12/24 14:43:20;;;;;;;7.65;4.00;;;;;;;8.82;74.56;99553.78;6215842;23;20102;-69
2021/12/24 14:46:25;;;;;;;8.27;3.22;;;;;;;8.82;74.33;99538.97;6215741;23;20098;-71
2021/12/24 14:49:37;;;;;;;8.13;3.80;;;;;;;8.86;74.82;99544.84;6215965;23;20039;-70
2021/12/24 14:52:40;;;;;;;7.10;3.65;;;;;;;8.82;74.91;99545.97;6216716;23;20573;-68
2021/12/24 14:55:53;;;;;;;6.85;3.33;;;;;;;8.74;75.57;99549.06;6216563;23;20123;-70
2021/12/24 14:58:58;;;;;;;4.18;2.08;;;;;;;8.84;75.62;99542.34;6216649;23;20028;-72
2021/12/24 15:02:02;;;;;;;4.68;1.85;;;;;;;8.80;75.86;99540.84;6216535;23;20104;-68
2021/12/24 15:05:05;;;;;;;7.82;2.50;;;;;;;8.77;76.08;99546.22;6216564;23;20027;-71
2021/12/24 15:08:15;;;;;;;;;;;;;;;8.49;77.72;99557.50;6216979;23;20466;-70
2021/12/24 15:11:24;;;;;;;9.48;2.40;;;;;;;8.43;78.09;99565.66;6216509;23;19962;-71
2021/12/24 15:14:29;;;;;;;4.30;1.92;;;;;;;8.51;78.08;99563.44;6216460;23;20525;-73
2021/12/24 15:17:40;;;;;;;5.10;1.85;;;;;;;8.64;77.34;99560.94;6197935;23;20074;-71
2021/12/24 15:25:10;;;;;;;6.88;1.60;;;;;;;8.54;77.59;99555.44;6127002;23;20081;-72
2021/12/24 15:28:18;;;;;;;;;;;;;;;8.48;77.99;99570.59;6126253;23;20024;-69
2021/12/24 15:31:23;;;;;;;36.33;22.25;;;;;;;8.30;78.65;99564.69;6126046;23;20283;-71
2021/12/24 15:34:26;;;;;;;28.98;18.75;;;;;;;8.35;78.29;99568.66;6126958;23;20024;-70
2021/12/24 15:37:30;;;;;;;17.20;10.32;;;;;;;8.42;78.41;99563.13;6126908;23;20029;-70
2021/12/24 15:40:34;;;;;;;42.50;31.63;;;;;;;8.46;78.03;99560.28;6126837;23;20026;-70
2021/12/24 15:43:39;;;;;;;19.00;12.23;;;;;;;8.26;78.85;99558.78;6126923;23;20028;-71
2021/12/24 15:46:42;;;;;;;18.70;12.40;;;;;;;8.36;78.43;99572.13;6126689;23;20350;-70
2021/12/24 15:49:45;;;;;;;67.13;54.70;;;;;;;8.32;79.09;99575.81;6126845;23;20060;-68
2021/12/24 15:52:49;;;;;;;49.08;42.53;;;;;;;8.34;78.89;99573.97;6126889;23;20081;-74
2021/12/24 15:55:53;;;;;;;14.48;12.05;;;;;;;8.41;78.46;99570.13;6126852;23;20076;-71
2021/12/24 15:58:56;;;;;;;6.40;4.43;;;;;;;8.42;78.57;99571.78;6126748;23;20069;-71
2021/12/24 16:02:01;;;;;;;23.10;19.15;;;;;;;8.49;78.21;99573.13;6126729;23;20475;-71
2021/12/24 16:05:05;;;;;;;28.90;21.58;;;;;;;8.46;78.18;99568.09;6126769;23;20531;-64
2021/12/24 16:08:11;;;;;;;8.18;6.43;;;;;;;8.41;78.29;99562.31;6126602;23;20348;-68
2021/12/24 16:11:15;;;;;;;5.75;3.80;;;;;;;8.35;78.57;99553.03;6126639;23;20029;-69
2021/12/24 16:14:20;;;;;;;;;;;;;;;8.37;78.79;99563.38;6127189;23;20402;-70
2021/12/24 16:17:23;;;;;;;5.05;2.42;;;;;;;8.44;78.58;99569.09;6126564;23;19916;-70
2021/12/24 16:20:26;;;;;;;5.50;2.10;;;;;;;8.61;77.64;99577.63;6126477;23;20548;-70
2021/12/24 16:23:29;;;;;;;16.45;11.48;;;;;;;8.50;78.11;99577.41;6130296;23;20036;-69
2021/12/24 16:26:33;;;;;;;;;;;;;;;8.26;79.17;99576.19;6156397;23;20052;-70
2021/12/24 16:30:08;;;;;;;23.80;16.42;;;;;;;8.20;79.55;99577.41;6156060;23;19967;-71
2021/12/24 16:33:11;;;;;;;11.88;7.40;;;;;;;8.18;79.21;99575.78;6155933;23;20023;-70
2021/12/24 16:36:14;;;;;;;23.67;15.65;;;;;;;8.18;79.67;99576.63;6155990;23;20478;-70
2021/12/24 16:39:17;;;;;;;;;;;;;;;8.17;79.72;99567.16;6156303;23;20055;-69
2021/12/24 16:42:23;;;;;;;15.30;10.32;;;;;;;8.07;80.15;99577.25;6155913;23;20249;-69
2021/12/24 16:45:28;;;;;;;37.53;30.25;;;;;;;8.13;80.13;99578.66;6155815;23;20024;-70
2021/12/24 16:48:32;;;;;;;14.50;11.77;;;;;;;7.98;81.03;99574.34;6155701;23;20358;-69
2021/12/24 16:51:35;;;;;;;;;;;;;;;7.98;81.19;99582.16;6156310;23;20059;-68
2021/12/24 16:54:38;;;;;;;9.02;4.95;;;;;;;8.04;80.30;99567.03;6155708;23;19936;-66